createdAt,value
2022-08-23T00:01:39.418Z,98662.60
2022-08-23T00:04:21.277Z,98659.60
2022-08-23T00:06:50.836Z,98659.00
2022-08-23T00:09:21.050Z,98654.60
2022-08-23T00:12:06.136Z,98658.00
2022-08-23T00:14:38.163Z,98665.60
2022-08-23T00:17:06.974Z,98670.00
2022-08-23T00:19:33.585Z,98663.80
2022-08-23T00:22:00.362Z,98657.60
2022-08-23T00:24:27.200Z,98655.80
2022-08-23T00:27:09.683Z,98664.40
2022-08-23T00:29:47.223Z,98668.80
2022-08-23T00:32:29.927Z,98662.40
2022-08-23T00:34:57.187Z,98665.80
2022-08-23T00:37:24.948Z,98671.00
2022-08-23T00:39:51.615Z,98674.60
2022-08-23T00:43:01.865Z,98685.80
2022-08-23T00:46:02.886Z,98693.00
2022-08-23T00:48:30.654Z,98697.80
2022-08-23T00:51:29.299Z,98701.80
2022-08-23T00:54:01.344Z,98699.40
2022-08-23T00:56:34.561Z,98699.20
2022-08-23T00:59:01.398Z,98697.00
2022-08-23T01:01:28.606Z,98704.00
2022-08-23T01:04:04.383Z,98711.40
2022-08-23T01:06:58.904Z,98709.60
2022-08-23T01:09:26.100Z,98710.20
2022-08-23T01:12:19.107Z,98712.00
2022-08-23T01:15:19.372Z,98709.20
2022-08-23T01:18:02.876Z,98707.40
2022-08-23T01:21:10.315Z,98703.00
2022-08-23T01:23:43.867Z,98699.40
2022-08-23T01:26:13.064Z,98693.80
2022-08-23T01:28:41.040Z,98690.20
2022-08-23T01:31:14.946Z,98687.20
2022-08-23T01:33:43.679Z,98684.00
2022-08-23T01:36:14.059Z,98685.60
2022-08-23T01:38:40.833Z,98684.00
2022-08-23T01:41:08.601Z,98681.60
2022-08-23T01:43:35.677Z,98683.80
2022-08-23T01:46:12.497Z,98682.60
2022-08-23T01:48:39.796Z,98675.60
2022-08-23T01:51:07.252Z,98674.00
2022-08-23T01:53:34.514Z,98688.80
2022-08-23T01:56:01.790Z,98691.20
2022-08-23T01:58:31.240Z,98687.20
2022-08-23T02:00:58.117Z,98691.00
2022-08-23T02:03:24.904Z,98687.80
2022-08-23T02:08:43.336Z,98684.80
2022-08-23T02:13:46.123Z,98680.00
2022-08-23T02:16:14.997Z,98673.40
2022-08-23T02:18:41.720Z,98678.40
2022-08-23T02:21:10.328Z,98706.80
2022-08-23T02:23:37.109Z,98713.60
2022-08-23T02:26:03.994Z,98714.20
2022-08-23T02:28:30.500Z,98709.40
2022-08-23T02:30:57.044Z,98705.20
2022-08-23T02:33:24.681Z,98704.40
2022-08-23T02:35:51.303Z,98705.60
2022-08-23T02:38:18.325Z,98705.20
2022-08-23T02:40:44.874Z,98711.60
2022-08-23T02:43:12.094Z,98718.80
2022-08-23T02:45:39.092Z,98718.40
2022-08-23T02:48:06.913Z,98717.40
2022-08-23T02:50:34.463Z,98712.20
2022-08-23T02:53:01.285Z,98718.20
2022-08-23T02:55:28.148Z,98712.20
2022-08-23T02:57:55.258Z,98713.00
2022-08-23T03:00:23.014Z,98711.40
2022-08-23T03:02:49.580Z,98694.80
2022-08-23T03:05:17.210Z,98683.20
2022-08-23T03:07:44.610Z,98687.40
2022-08-23T03:10:12.339Z,98689.40
2022-08-23T03:12:39.083Z,98687.40
2022-08-23T03:15:06.963Z,98692.60
2022-08-23T03:17:34.720Z,98697.00
2022-08-23T03:20:01.268Z,98702.40
2022-08-23T03:22:27.808Z,98713.40
2022-08-23T03:24:55.231Z,98718.20
2022-08-23T03:27:21.767Z,98724.60
2022-08-23T03:29:48.830Z,98716.40
2022-08-23T03:32:16.009Z,98719.80
2022-08-23T03:34:43.896Z,98717.20
2022-08-23T03:37:10.461Z,98719.00
2022-08-23T03:39:37.269Z,98713.80
2022-08-23T03:42:04.877Z,98711.20
2022-08-23T03:44:31.660Z,98712.60
2022-08-23T03:46:58.261Z,98711.20
2022-08-23T03:49:24.982Z,98709.80
2022-08-23T03:51:51.925Z,98702.20
2022-08-23T03:54:18.775Z,98703.00
2022-08-23T03:57:03.085Z,98698.60
2022-08-23T03:59:32.658Z,98698.00
2022-08-23T04:01:59.982Z,98693.20
2022-08-23T04:04:27.791Z,98692.80
2022-08-23T04:06:54.690Z,98691.00
2022-08-23T04:09:21.256Z,98690.60
2022-08-23T04:11:48.593Z,98692.20
2022-08-23T04:14:15.363Z,98693.20
2022-08-23T04:16:41.987Z,98694.20
2022-08-23T04:19:16.099Z,98696.00
2022-08-23T04:21:48.702Z,98694.20
2022-08-23T04:24:17.257Z,98690.20
2022-08-23T04:26:43.809Z,98691.00
2022-08-23T04:29:24.836Z,98686.60
2022-08-23T04:32:05.493Z,98693.20
2022-08-23T04:34:35.931Z,98697.20
2022-08-23T04:37:02.673Z,98705.00
2022-08-23T04:39:29.508Z,98702.40
2022-08-23T04:42:15.066Z,98703.40
2022-08-23T04:44:41.708Z,98707.60
2022-08-23T04:47:08.430Z,98705.80
2022-08-23T04:49:35.023Z,98713.00
2022-08-23T04:52:01.769Z,98714.80
2022-08-23T04:54:29.405Z,98719.60
2022-08-23T04:56:56.516Z,98724.00
2022-08-23T04:59:23.212Z,98728.40
2022-08-23T05:01:51.144Z,98724.40
2022-08-23T05:04:18.389Z,98724.60
2022-08-23T05:06:45.969Z,98716.40
2022-08-23T05:09:16.078Z,98716.20
2022-08-23T05:11:46.663Z,98718.80
2022-08-23T05:14:13.172Z,98725.40
2022-08-23T05:16:39.718Z,98726.40
2022-08-23T05:19:06.628Z,98724.00
2022-08-23T05:21:33.255Z,98723.80
2022-08-23T05:24:00.661Z,98735.20
2022-08-23T05:26:30.467Z,98738.40
2022-08-23T05:28:57.186Z,98743.20
2022-08-23T05:31:28.008Z,98733.40
2022-08-23T05:33:54.854Z,98744.60
2022-08-23T05:36:22.089Z,98739.60
2022-08-23T05:38:50.670Z,98739.80
2022-08-23T05:41:17.674Z,98740.80
2022-08-23T05:43:48.343Z,98737.80
2022-08-23T05:46:19.954Z,98733.40
2022-08-23T05:48:51.007Z,98736.60
2022-08-23T05:51:23.618Z,98734.40
2022-08-23T05:53:52.687Z,98732.40
2022-08-23T05:56:27.787Z,98730.00
2022-08-23T05:59:00.958Z,98736.40
2022-08-23T06:01:30.803Z,98738.20
2022-08-23T06:04:04.480Z,98732.80
2022-08-23T06:06:37.227Z,98720.20
2022-08-23T06:09:07.674Z,98724.40
2022-08-23T06:11:34.970Z,98726.20
2022-08-23T06:14:05.413Z,98732.60
2022-08-23T06:16:46.601Z,98731.80
2022-08-23T06:19:14.596Z,98731.60
2022-08-23T06:21:43.077Z,98737.40
2022-08-23T06:24:12.309Z,98743.20
2022-08-23T06:26:45.328Z,98743.80
2022-08-23T06:29:16.381Z,98748.80
2022-08-23T06:31:50.498Z,98753.60
2022-08-23T06:34:39.934Z,98757.60
2022-08-23T06:37:12.712Z,98764.40
2022-08-23T06:39:39.472Z,98763.80
2022-08-23T06:42:36.495Z,98764.20
2022-08-23T06:44:57.898Z,98756.80
2022-08-23T06:47:24.522Z,98754.60
2022-08-23T06:49:57.918Z,98753.00
2022-08-23T06:52:27.528Z,98757.40
2022-08-23T06:54:54.717Z,98759.20
2022-08-23T06:57:21.632Z,98761.40
2022-08-23T06:59:51.044Z,98760.60
2022-08-23T07:02:17.758Z,98762.00
2022-08-23T07:04:44.822Z,98761.40
2022-08-23T07:07:12.454Z,98759.60
2022-08-23T07:09:40.888Z,98762.60
2022-08-23T07:12:08.114Z,98758.80
2022-08-23T07:14:36.484Z,98762.80
2022-08-23T07:17:04.744Z,98763.00
2022-08-23T07:19:34.746Z,98763.80
2022-08-23T07:22:05.676Z,98767.60
2022-08-23T07:24:33.804Z,98774.20
2022-08-23T07:27:06.917Z,98778.40
2022-08-23T07:29:37.845Z,98777.80
2022-08-23T07:32:05.798Z,98780.20
2022-08-23T07:34:33.204Z,98788.20
2022-08-23T07:37:01.546Z,98789.60
2022-08-23T07:39:28.368Z,98785.80
2022-08-23T07:41:55.116Z,98784.40
2022-08-23T07:44:27.118Z,98789.20
2022-08-23T07:46:55.064Z,98775.80
2022-08-23T07:49:22.096Z,98776.00
2022-08-23T07:51:52.127Z,98775.80
2022-08-23T07:54:21.273Z,98774.20
2022-08-23T07:56:48.100Z,98773.20
2022-08-23T07:59:14.915Z,98773.80
2022-08-23T08:01:44.162Z,98778.00
2022-08-23T08:04:12.495Z,98778.40
2022-08-23T08:07:10.430Z,98782.00
2022-08-23T08:09:36.964Z,98780.80
2022-08-23T08:12:04.269Z,98776.20
2022-08-23T08:14:30.890Z,98781.60
2022-08-23T08:16:58.697Z,98783.40
2022-08-23T08:19:25.340Z,98781.40
2022-08-23T08:21:52.176Z,98783.00
2022-08-23T08:24:19.085Z,98788.00
2022-08-23T08:26:46.990Z,98795.40
2022-08-23T08:29:14.087Z,98788.00
2022-08-23T08:31:43.616Z,98786.80
2022-08-23T08:34:11.095Z,98791.20
2022-08-23T08:36:45.867Z,98796.00
2022-08-23T08:39:22.232Z,98797.60
2022-08-23T08:42:47.657Z,98807.60
2022-08-23T08:45:25.463Z,98805.00
2022-08-23T08:48:06.825Z,98809.40
2022-08-23T08:50:52.163Z,98814.00
2022-08-23T08:53:28.698Z,98812.60
2022-08-23T08:56:02.672Z,98820.40
2022-08-23T08:58:43.347Z,98818.00
2022-08-23T09:01:10.004Z,98820.80
2022-08-23T09:03:37.039Z,98815.60
2022-08-23T09:06:18.802Z,98818.60
2022-08-23T09:09:03.084Z,98820.00
2022-08-23T09:11:54.383Z,98819.60
2022-08-23T09:14:49.678Z,98818.60
2022-08-23T09:17:28.269Z,98814.00
2022-08-23T09:20:02.216Z,98813.60
2022-08-23T09:22:51.262Z,98813.20
2022-08-23T09:25:18.655Z,98812.20
2022-08-23T09:27:46.378Z,98808.20
2022-08-23T09:30:17.975Z,98810.20
2022-08-23T09:32:50.177Z,98810.60
2022-08-23T09:35:24.485Z,98814.40
2022-08-23T09:38:02.472Z,98813.00
2022-08-23T09:40:44.492Z,98816.40
2022-08-23T09:43:16.586Z,98817.00
2022-08-23T09:45:48.887Z,98818.20
2022-08-23T09:48:37.158Z,98823.40
2022-08-23T09:51:17.828Z,98823.80
2022-08-23T09:54:03.747Z,98821.80
2022-08-23T09:56:37.405Z,98826.60
2022-08-23T09:59:27.423Z,98829.60
2022-08-23T10:01:58.406Z,98841.80
2022-08-23T10:04:47.256Z,98850.40
2022-08-23T10:07:40.378Z,98860.80
2022-08-23T10:10:23.028Z,98863.40
2022-08-23T10:12:51.431Z,98854.00
2022-08-23T10:15:18.680Z,98859.80
2022-08-23T10:18:13.742Z,98868.80
2022-08-23T10:21:07.504Z,98879.40
2022-08-23T10:23:52.254Z,98893.60
2022-08-23T10:26:29.957Z,98916.40
2022-08-23T10:29:36.001Z,98942.20
2022-08-23T10:32:21.528Z,98940.00
2022-08-23T10:35:18.868Z,98918.40
2022-08-23T10:38:10.000Z,98903.40
2022-08-23T10:41:03.853Z,98900.40
2022-08-23T10:43:48.335Z,98891.20
2022-08-23T10:46:14.910Z,98896.00
2022-08-23T10:48:52.176Z,98901.80
2022-08-23T10:51:31.460Z,98906.20
2022-08-23T10:54:07.741Z,98909.80
2022-08-23T10:56:36.650Z,98903.60
2022-08-23T10:59:20.763Z,98877.40
2022-08-23T11:02:05.156Z,98878.60
2022-08-23T11:05:15.186Z,98899.40
2022-08-23T11:07:42.747Z,98892.40
2022-08-23T11:10:31.329Z,98897.00
2022-08-23T11:13:24.955Z,98899.20
2022-08-23T11:16:25.228Z,98893.80
2022-08-23T11:18:52.012Z,98872.60
2022-08-23T11:21:18.389Z,98880.00
2022-08-23T11:23:58.848Z,98882.40
2022-08-23T11:26:36.761Z,98856.80
2022-08-23T11:29:06.082Z,98841.20
2022-08-23T11:32:29.954Z,98839.80
2022-08-23T11:35:27.901Z,98842.00
2022-08-23T11:38:05.283Z,98855.60
2022-08-23T11:40:42.167Z,98859.00
2022-08-23T11:43:25.856Z,98859.60
2022-08-23T11:45:53.526Z,98858.80
2022-08-23T11:48:34.964Z,98862.40
2022-08-23T11:51:56.134Z,98855.60
2022-08-23T11:54:42.721Z,98855.60
2022-08-23T11:57:26.203Z,98856.80
2022-08-23T12:00:29.374Z,98858.80
2022-08-23T12:03:36.831Z,98867.00
2022-08-23T12:06:12.913Z,98866.60
2022-08-23T12:09:01.862Z,98868.60
2022-08-23T12:11:56.236Z,98866.80
2022-08-23T12:14:31.604Z,98871.20
2022-08-23T12:17:13.336Z,98872.00
2022-08-23T12:20:25.358Z,98874.80
2022-08-23T12:23:15.589Z,98872.80
2022-08-23T12:25:43.801Z,98869.00
2022-08-23T12:28:42.308Z,98872.80
2022-08-23T12:31:34.155Z,98875.00
2022-08-23T12:34:16.206Z,98880.40
2022-08-23T12:37:08.869Z,98876.40
2022-08-23T12:39:50.325Z,98875.60
2022-08-23T12:42:44.868Z,98875.60
2022-08-23T12:45:21.436Z,98869.60
2022-08-23T12:48:02.672Z,98869.00
2022-08-23T12:50:38.319Z,98869.60
2022-08-23T12:53:12.925Z,98865.40
2022-08-23T12:55:52.005Z,98856.60
2022-08-23T12:58:33.646Z,98848.60
2022-08-23T13:01:08.531Z,98844.00
2022-08-23T13:03:44.427Z,98848.20
2022-08-23T13:06:20.880Z,98841.60
2022-08-23T13:09:09.048Z,98840.20
2022-08-23T13:11:38.391Z,98837.20
2022-08-23T13:14:36.913Z,98835.40
2022-08-23T13:17:24.997Z,98828.20
2022-08-23T13:20:22.122Z,98831.20
2022-08-23T13:23:11.950Z,98830.40
2022-08-23T13:25:42.079Z,98829.20
2022-08-23T13:28:41.250Z,98823.80
2022-08-23T13:31:08.546Z,98812.20
2022-08-23T13:33:35.516Z,98804.80
2022-08-23T13:36:30.167Z,98800.60
2022-08-23T13:39:06.365Z,98785.20
2022-08-23T13:41:38.975Z,98780.00
2022-08-23T13:44:08.790Z,98768.80
2022-08-23T13:46:46.339Z,98768.20
2022-08-23T13:49:28.561Z,98766.20
2022-08-23T13:52:18.652Z,98766.00
2022-08-23T13:54:50.783Z,98775.60
2022-08-23T13:57:20.750Z,98787.60
2022-08-23T13:59:54.535Z,98804.60
2022-08-23T14:02:23.837Z,98824.80
2022-08-23T14:04:50.891Z,98839.60
2022-08-23T14:07:18.619Z,98853.20
2022-08-23T14:09:45.725Z,98856.40
2022-08-23T14:12:18.107Z,98853.60
2022-08-23T14:14:46.431Z,98859.20
2022-08-23T14:17:16.604Z,98860.00
2022-08-23T14:22:35.104Z,98860.00
2022-08-23T14:25:01.896Z,98860.60
2022-08-23T14:27:28.588Z,98861.00
2022-08-23T14:29:55.168Z,98868.20
2022-08-23T14:32:21.973Z,98868.00
2022-08-23T14:34:49.251Z,98867.80
2022-08-23T14:40:04.919Z,98864.20
2022-08-23T14:42:31.832Z,98863.40
2022-08-23T14:44:58.925Z,98853.60
2022-08-23T14:47:26.784Z,98852.40
2022-08-23T14:49:54.152Z,98856.00
2022-08-23T14:52:21.612Z,98860.40
2022-08-23T14:54:49.626Z,98860.40
2022-08-23T14:57:16.614Z,98857.40
2022-08-23T14:59:43.179Z,98854.40
2022-08-23T15:02:13.400Z,98851.80
2022-08-23T15:04:41.662Z,98849.40
2022-08-23T15:07:23.738Z,98857.00
2022-08-23T15:09:56.533Z,98864.80
2022-08-23T15:15:21.700Z,98874.40
2022-08-23T15:17:58.325Z,98888.40
2022-08-23T15:20:33.097Z,98894.40
2022-08-23T15:23:00.556Z,98897.40
2022-08-23T15:25:30.925Z,98900.80
2022-08-23T15:27:57.869Z,98902.60
2022-08-23T15:30:25.045Z,98905.00
2022-08-23T15:32:54.787Z,98906.00
2022-08-23T15:35:25.821Z,98921.60
2022-08-23T15:37:54.550Z,98931.00
2022-08-23T15:40:21.301Z,98931.00
2022-08-23T15:42:48.012Z,98928.00
2022-08-23T15:45:14.861Z,98925.80
2022-08-23T15:47:54.427Z,98923.80
2022-08-23T15:50:26.106Z,98924.00
2022-08-23T15:52:53.217Z,98922.00
2022-08-23T15:55:21.178Z,98925.80
2022-08-23T15:57:52.835Z,98933.00
2022-08-23T16:00:22.605Z,98939.20
2022-08-23T16:03:18.410Z,98934.60
2022-08-23T16:05:39.671Z,98938.00
2022-08-23T16:08:08.568Z,98938.80
2022-08-23T16:10:35.131Z,98937.20
2022-08-23T16:13:02.053Z,98937.80
2022-08-23T16:15:28.952Z,98941.00
2022-08-23T16:17:55.552Z,98937.00
2022-08-23T16:20:22.258Z,98938.00
2022-08-23T16:22:48.790Z,98939.00
2022-08-23T16:25:15.405Z,98937.60
2022-08-23T16:27:41.963Z,98938.00
2022-08-23T16:30:09.953Z,98938.60
2022-08-23T16:32:39.856Z,98934.20
2022-08-23T16:35:07.655Z,98935.80
2022-08-23T16:37:36.100Z,98937.60
2022-08-23T16:40:07.841Z,98939.00
2022-08-23T16:42:34.814Z,98938.40
2022-08-23T16:45:01.804Z,98939.80
2022-08-23T16:47:31.284Z,98942.20
2022-08-23T16:49:57.843Z,98948.00
2022-08-23T16:52:34.244Z,98952.20
2022-08-23T16:55:07.709Z,98959.00
2022-08-23T16:57:34.277Z,98966.60
2022-08-23T17:00:01.084Z,98974.40
2022-08-23T17:02:33.188Z,98981.20
2022-08-23T17:05:00.615Z,98981.40
2022-08-23T17:07:27.192Z,98976.20
2022-08-23T17:09:53.808Z,98976.60
2022-08-23T17:12:21.128Z,98967.80
2022-08-23T17:14:50.783Z,98965.80
2022-08-23T17:17:18.456Z,98969.60
2022-08-23T17:19:45.089Z,98966.40
2022-08-23T17:22:11.972Z,98961.60
2022-08-23T17:24:38.565Z,98965.00
2022-08-23T17:27:05.911Z,98962.60
2022-08-23T17:29:37.387Z,98970.80
2022-08-23T17:32:05.188Z,98969.00
2022-08-23T17:34:31.810Z,98970.60
2022-08-23T17:36:59.780Z,98968.20
2022-08-23T17:39:29.242Z,98971.40
2022-08-23T17:41:58.299Z,98972.20
2022-08-23T17:44:25.161Z,98968.80
2022-08-23T17:46:52.301Z,98963.00
2022-08-23T17:49:19.642Z,98966.00
2022-08-23T17:51:46.748Z,98967.00
2022-08-23T17:54:16.091Z,98968.20
2022-08-23T17:56:50.051Z,98968.80
2022-08-23T17:59:18.415Z,98969.20
2022-08-23T18:01:45.078Z,98971.40
2022-08-23T18:04:11.750Z,98975.80
2022-08-23T18:06:38.533Z,98973.00
2022-08-23T18:09:07.238Z,98971.00
2022-08-23T18:11:35.382Z,98974.60
2022-08-23T18:14:03.262Z,98979.60
2022-08-23T18:16:35.371Z,98983.60
2022-08-23T18:19:05.108Z,98986.00
2022-08-23T18:21:31.887Z,98987.40
2022-08-23T18:23:59.258Z,98990.80
2022-08-23T18:26:46.293Z,98994.60
2022-08-23T18:29:14.537Z,99000.40
2022-08-23T18:31:43.606Z,99003.80
2022-08-23T18:34:12.912Z,99008.00
2022-08-23T18:36:39.972Z,99009.80
2022-08-23T18:39:08.403Z,99016.80
2022-08-23T18:41:35.436Z,99018.40
2022-08-23T18:44:05.777Z,99017.80
2022-08-23T18:46:34.373Z,99018.80
2022-08-23T18:49:01.426Z,99022.60
2022-08-23T18:51:29.685Z,99021.40
2022-08-23T18:53:57.096Z,99022.40
2022-08-23T18:56:24.087Z,99025.80
2022-08-23T18:58:50.566Z,99029.60
2022-08-23T19:01:32.959Z,99033.20
2022-08-23T19:04:03.166Z,99032.00
2022-08-23T19:06:30.734Z,99027.00
2022-08-23T19:08:57.656Z,99023.60
2022-08-23T19:11:25.182Z,99022.60
2022-08-23T19:13:51.781Z,99021.20
2022-08-23T19:16:21.593Z,99024.20
2022-08-23T19:18:50.513Z,99029.80
2022-08-23T19:21:21.464Z,99032.20
2022-08-23T19:23:50.533Z,99036.00
2022-08-23T19:26:22.092Z,99039.40
2022-08-23T19:28:49.241Z,99044.80
2022-08-23T19:31:15.956Z,99044.20
2022-08-23T19:33:42.887Z,99047.00
2022-08-23T19:36:23.707Z,99041.80
2022-08-23T19:38:57.105Z,99046.80
2022-08-23T19:41:23.838Z,99047.20
2022-08-23T19:43:51.317Z,99047.40
2022-08-23T19:46:18.404Z,99051.00
2022-08-23T19:48:48.000Z,99050.60
2022-08-23T19:51:17.266Z,99050.80
2022-08-23T19:54:11.298Z,99048.60
2022-08-23T19:56:56.527Z,99050.80
2022-08-23T19:59:39.283Z,99053.40
2022-08-23T20:02:10.894Z,99051.60
2022-08-23T20:04:37.407Z,99060.20
2022-08-23T20:07:05.846Z,99059.60
2022-08-23T20:09:34.151Z,99057.20
2022-08-23T20:12:02.040Z,99050.40
2022-08-23T20:14:31.061Z,99050.40
2022-08-23T20:16:57.640Z,99048.20
2022-08-23T20:19:24.249Z,99045.60
2022-08-23T20:21:51.540Z,99050.80
2022-08-23T20:24:28.842Z,99049.20
2022-08-23T20:27:06.133Z,99057.00
2022-08-23T20:29:32.910Z,99058.60
2022-08-23T20:32:00.427Z,99055.40
2022-08-23T20:34:30.541Z,99056.80
2022-08-23T20:36:57.280Z,99053.20
2022-08-23T20:39:24.714Z,99053.40
2022-08-23T20:41:52.493Z,99055.80
2022-08-23T20:44:21.794Z,99056.80
2022-08-23T20:46:53.728Z,99057.80
2022-08-23T20:49:22.736Z,99056.60
2022-08-23T20:51:50.292Z,99061.20
2022-08-23T20:54:17.784Z,99061.60
2022-08-23T20:56:44.403Z,99055.60
2022-08-23T20:59:12.963Z,99058.60
2022-08-23T21:01:39.578Z,99062.00
2022-08-23T21:04:07.198Z,99061.00
2022-08-23T21:06:51.002Z,99062.00
2022-08-23T21:09:23.449Z,99057.80
2022-08-23T21:11:55.519Z,99056.40
2022-08-23T21:14:22.632Z,99058.00
2022-08-23T21:16:49.326Z,99058.20
2022-08-23T21:19:17.205Z,99060.80
2022-08-23T21:21:44.335Z,99058.80
2022-08-23T21:24:12.287Z,99054.80
2022-08-23T21:26:39.934Z,99058.60
2022-08-23T21:29:07.984Z,99057.40
2022-08-23T21:31:35.756Z,99060.40
2022-08-23T21:34:02.692Z,99058.60
2022-08-23T21:36:29.852Z,99056.20
2022-08-23T21:38:56.688Z,99056.00
2022-08-23T21:41:34.257Z,99056.00
2022-08-23T21:44:03.743Z,99048.00
2022-08-23T21:46:30.373Z,99055.60
2022-08-23T21:48:57.072Z,99060.60
2022-08-23T21:51:24.437Z,99067.00
2022-08-23T21:53:51.000Z,99068.80
2022-08-23T21:56:19.125Z,99067.40
2022-08-23T21:58:46.442Z,99067.00
2022-08-23T22:01:18.595Z,99067.80
2022-08-23T22:03:45.301Z,99063.80
2022-08-23T22:06:15.776Z,99059.20
2022-08-23T22:08:44.777Z,99056.60
2022-08-23T22:11:13.873Z,99058.80
2022-08-23T22:13:42.029Z,99060.80
2022-08-23T22:16:09.568Z,99067.20
2022-08-23T22:18:36.692Z,99064.40
2022-08-23T22:21:05.005Z,99060.40
2022-08-23T22:23:32.612Z,99059.40
2022-08-23T22:26:02.294Z,99055.60
2022-08-23T22:28:32.401Z,99060.60
2022-08-23T22:31:03.052Z,99055.40
2022-08-23T22:33:30.511Z,99059.40
2022-08-23T22:36:23.939Z,99058.20
2022-08-23T22:38:51.749Z,99062.80
2022-08-23T22:41:24.004Z,99059.80
2022-08-23T22:43:52.984Z,99065.80
2022-08-23T22:46:19.793Z,99065.20
2022-08-23T22:48:47.315Z,99064.60
2022-08-23T22:51:21.275Z,99069.40
2022-08-23T22:53:52.348Z,99075.60
2022-08-23T22:56:23.994Z,99073.00
2022-08-23T22:58:52.779Z,99078.00
2022-08-23T23:01:23.300Z,99079.00
2022-08-23T23:03:52.453Z,99081.60
2022-08-23T23:06:19.782Z,99085.20
2022-08-23T23:08:46.807Z,99079.00
2022-08-23T23:11:15.670Z,99082.20
2022-08-23T23:13:43.393Z,99079.00
2022-08-23T23:16:15.551Z,99074.40
2022-08-23T23:19:04.494Z,99074.80
2022-08-23T23:21:38.168Z,99074.40
2022-08-23T23:24:06.077Z,99080.20
2022-08-23T23:26:32.830Z,99079.60
2022-08-23T23:28:59.483Z,99079.40
2022-08-23T23:31:26.597Z,99077.80
2022-08-23T23:33:53.161Z,99077.40
2022-08-23T23:36:20.831Z,99082.00
2022-08-23T23:38:48.424Z,99081.20
2022-08-23T23:41:15.586Z,99081.60
2022-08-23T23:43:42.440Z,99086.60
2022-08-23T23:46:12.938Z,99087.40
2022-08-23T23:48:42.604Z,99091.40
2022-08-23T23:51:14.906Z,99089.40
2022-08-23T23:53:41.580Z,99085.60
2022-08-23T23:56:12.990Z,99086.00
2022-08-23T23:58:40.325Z,99081.00
